sensor_id;sensor_type;location;lat;lon;timestamp;pressure;altitude;pressure_sealevel;temperature;humidity
28000;BME280;15328;50.860;10.562;2023-01-15T00:01:44;94827.16;;;8.52;79.96
28000;BME280;15328;50.860;10.562;2023-01-15T00:06:45;94802.94;;;8.65;79.26
28000;BME280;15328;50.860;10.562;2023-01-15T00:11:45;94798.00;;;8.74;79.08
28000;BME280;15328;50.860;10.562;2023-01-15T00:16:49;94785.91;;;8.61;80.17
28000;BME280;15328;50.860;10.562;2023-01-15T00:21:50;94797.63;;;8.65;80.02
28000;BME280;15328;50.860;10.562;2023-01-15T00:26:51;94761.13;;;8.72;80.02
28000;BME280;15328;50.860;10.562;2023-01-15T00:32:10;94754.06;;;8.78;79.88
28000;BME280;15328;50.860;10.562;2023-01-15T00:37:10;94767.13;;;8.62;81.08
28000;BME280;15328;50.860;10.562;2023-01-15T00:42:11;94746.22;;;8.88;79.84
28000;BME280;15328;50.860;10.562;2023-01-15T00:47:12;94748.88;;;8.88;80.30
28000;BME280;15328;50.860;10.562;2023-01-15T00:52:14;94751.47;;;8.83;81.26
28000;BME280;15328;50.860;10.562;2023-01-15T00:57:14;94774.59;;;8.87;81.05
28000;BME280;15328;50.860;10.562;2023-01-15T01:02:15;94748.88;;;8.88;81.19
28000;BME280;15328;50.860;10.562;2023-01-15T01:07:15;94754.78;;;8.95;80.91
28000;BME280;15328;50.860;10.562;2023-01-15T01:12:17;94739.22;;;9.04;80.55
28000;BME280;15328;50.860;10.562;2023-01-15T01:17:17;94747.50;;;9.07;80.34
28000;BME280;15328;50.860;10.562;2023-01-15T01:22:18;94750.16;;;9.07;80.30
28000;BME280;15328;50.860;10.562;2023-01-15T01:27:18;94735.94;;;9.18;79.74
28000;BME280;15328;50.860;10.562;2023-01-15T01:32:18;94739.75;;;9.27;79.68
28000;BME280;15328;50.860;10.562;2023-01-15T01:37:19;94726.72;;;9.26;80.10
28000;BME280;15328;50.860;10.562;2023-01-15T01:48:24;94742.31;;;9.44;79.41
28000;BME280;15328;50.860;10.562;2023-01-15T01:53:28;94746.81;;;9.44;79.71
28000;BME280;15328;50.860;10.562;2023-01-15T01:58:31;94715.56;;;9.51;79.50
28000;BME280;15328;50.860;10.562;2023-01-15T02:03:34;94711.84;;;9.52;79.21
28000;BME280;15328;50.860;10.562;2023-01-15T02:08:36;94715.34;;;9.57;78.76
28000;BME280;15328;50.860;10.562;2023-01-15T02:13:40;94712.66;;;9.52;79.60
28000;BME280;15328;50.860;10.562;2023-01-15T02:19:07;94711.84;;;9.52;79.80
28000;BME280;15328;50.860;10.562;2023-01-15T02:34:54;94731.59;;;9.61;79.23
28000;BME280;15328;50.860;10.562;2023-01-15T02:39:58;94739.88;;;9.70;78.58
28000;BME280;15328;50.860;10.562;2023-01-15T02:45:01;94754.06;;;9.53;76.90
28000;BME280;15328;50.860;10.562;2023-01-15T02:50:06;94763.78;;;9.43;76.43
28000;BME280;15328;50.860;10.562;2023-01-15T02:55:12;94783.25;;;9.26;75.93
28000;BME280;15328;50.860;10.562;2023-01-15T03:00:16;94787.34;;;9.12;75.82
28000;BME280;15328;50.860;10.562;2023-01-15T03:05:22;94801.91;;;9.10;75.92
28000;BME280;15328;50.860;10.562;2023-01-15T03:10:33;94791.72;;;9.02;75.72
28000;BME280;15328;50.860;10.562;2023-01-15T03:15:57;94793.50;;;8.96;75.74
28000;BME280;15328;50.860;10.562;2023-01-15T03:22:06;94800.41;;;8.75;75.42
28000;BME280;15328;50.860;10.562;2023-01-15T03:27:08;94804.03;;;8.69;74.59
28000;BME280;15328;50.860;10.562;2023-01-15T03:32:09;94802.63;;;8.45;74.72
28000;BME280;15328;50.860;10.562;2023-01-15T03:37:10;94805.03;;;8.46;74.24
28000;BME280;15328;50.860;10.562;2023-01-15T03:52:36;94817.59;;;8.00;74.11
28000;BME280;15328;50.860;10.562;2023-01-15T03:57:49;94803.03;;;7.86;73.26
28000;BME280;15328;50.860;10.562;2023-01-15T04:02:55;94795.00;;;7.64;73.50
28000;BME280;15328;50.860;10.562;2023-01-15T04:07:58;94801.25;;;7.58;72.55
28000;BME280;15328;50.860;10.562;2023-01-15T04:12:59;94808.06;;;7.54;73.10
28000;BME280;15328;50.860;10.562;2023-01-15T04:17:59;94797.88;;;7.46;72.96
28000;BME280;15328;50.860;10.562;2023-01-15T04:23:00;94814.91;;;7.38;73.54
28000;BME280;15328;50.860;10.562;2023-01-15T04:28:00;94835.50;;;7.36;73.98
28000;BME280;15328;50.860;10.562;2023-01-15T04:33:02;94836.94;;;7.27;74.05
28000;BME280;15328;50.860;10.562;2023-01-15T04:38:02;94831.88;;;7.26;73.27
28000;BME280;15328;50.860;10.562;2023-01-15T04:43:03;94842.59;;;7.19;72.93
28000;BME280;15328;50.860;10.562;2023-01-15T04:48:22;94831.78;;;7.09;73.32
28000;BME280;15328;50.860;10.562;2023-01-15T04:53:22;94822.06;;;6.98;73.39
28000;BME280;15328;50.860;10.562;2023-01-15T04:58:22;94817.72;;;6.92;73.37
28000;BME280;15328;50.860;10.562;2023-01-15T05:03:23;94831.53;;;6.70;72.57
28000;BME280;15328;50.860;10.562;2023-01-15T05:08:23;94841.69;;;6.62;72.38
28000;BME280;15328;50.860;10.562;2023-01-15T05:13:23;94857.63;;;6.55;71.73
28000;BME280;15328;50.860;10.562;2023-01-15T05:18:24;94857.06;;;6.53;72.45
28000;BME280;15328;50.860;10.562;2023-01-15T05:23:25;94870.72;;;6.38;71.88
28000;BME280;15328;50.860;10.562;2023-01-15T05:28:25;94891.75;;;6.33;72.13
28000;BME280;15328;50.860;10.562;2023-01-15T05:33:25;94907.22;;;6.30;72.41
28000;BME280;15328;50.860;10.562;2023-01-15T05:38:26;94915.03;;;6.25;72.38
28000;BME280;15328;50.860;10.562;2023-01-15T05:43:26;94926.97;;;6.15;71.77
28000;BME280;15328;50.860;10.562;2023-01-15T05:48:26;94940.25;;;6.09;70.78
28000;BME280;15328;50.860;10.562;2023-01-15T05:53:27;94945.94;;;5.94;71.30
28000;BME280;15328;50.860;10.562;2023-01-15T05:58:28;94938.09;;;5.87;71.06
28000;BME280;15328;50.860;10.562;2023-01-15T06:03:28;94937.16;;;5.82;70.89
28000;BME280;15328;50.860;10.562;2023-01-15T06:08:29;94956.44;;;5.82;69.76
28000;BME280;15328;50.860;10.562;2023-01-15T06:13:29;94957.41;;;5.70;70.27
28000;BME280;15328;50.860;10.562;2023-01-15T06:18:30;94949.59;;;5.63;70.32
28000;BME280;15328;50.860;10.562;2023-01-15T06:23:30;94944.97;;;5.58;70.33
28000;BME280;15328;50.860;10.562;2023-01-15T06:28:32;94950.13;;;5.35;69.22
28000;BME280;15328;50.860;10.562;2023-01-15T06:33:32;94958.13;;;5.28;68.80
28000;BME280;15328;50.860;10.562;2023-01-15T06:38:33;94962.44;;;5.23;69.26
28000;BME280;15328;50.860;10.562;2023-01-15T06:43:34;94971.22;;;5.17;69.67
28000;BME280;15328;50.860;10.562;2023-01-15T06:48:53;94981.69;;;5.05;69.77
28000;BME280;15328;50.860;10.562;2023-01-15T06:53:53;94975.91;;;4.96;69.88
28000;BME280;15328;50.860;10.562;2023-01-15T06:58:54;94982.19;;;4.95;69.43
28000;BME280;15328;50.860;10.562;2023-01-15T07:03:55;94996.88;;;4.85;69.83
28000;BME280;15328;50.860;10.562;2023-01-15T07:08:56;94989.63;;;4.80;69.30
28000;BME280;15328;50.860;10.562;2023-01-15T07:13:56;94991.09;;;4.76;70.11
28000;BME280;15328;50.860;10.562;2023-01-15T07:19:06;95000.38;;;4.79;70.64
28000;BME280;15328;50.860;10.562;2023-01-15T07:24:06;95004.47;;;4.75;70.39
28000;BME280;15328;50.860;10.562;2023-01-15T07:29:06;95012.16;;;4.76;70.75
28000;BME280;15328;50.860;10.562;2023-01-15T07:34:07;95013.19;;;4.75;70.59
28000;BME280;15328;50.860;10.562;2023-01-15T07:39:09;95012.44;;;4.68;70.72
28000;BME280;15328;50.860;10.562;2023-01-15T07:44:10;95013.47;;;4.67;70.20
28000;BME280;15328;50.860;10.562;2023-01-15T07:49:29;95022.03;;;4.56;69.88
28000;BME280;15328;50.860;10.562;2023-01-15T07:54:46;95024.50;;;4.51;70.61
28000;BME280;15328;50.860;10.562;2023-01-15T07:59:48;95024.59;;;4.38;69.87
28000;BME280;15328;50.860;10.562;2023-01-15T08:04:48;95038.22;;;4.28;70.34
28000;BME280;15328;50.860;10.562;2023-01-15T08:09:48;95041.25;;;4.31;69.50
28000;BME280;15328;50.860;10.562;2023-01-15T08:14:49;95024.59;;;4.38;70.34
28000;BME280;15328;50.860;10.562;2023-01-15T08:20:14;95028.22;;;4.43;69.46
28000;BME280;15328;50.860;10.562;2023-01-15T08:25:18;95031.53;;;4.32;70.17
28000;BME280;15328;50.860;10.562;2023-01-15T08:30:23;95058.63;;;4.39;69.88
28000;BME280;15328;50.860;10.562;2023-01-15T08:35:24;95057.84;;;4.32;69.72
28000;BME280;15328;50.860;10.562;2023-01-15T08:40:24;95066.97;;;4.29;70.28
28000;BME280;15328;50.860;10.562;2023-01-15T08:45:25;95057.41;;;4.35;70.33
28000;BME280;15328;50.860;10.562;2023-01-15T08:50:25;95057.50;;;4.22;70.37
28000;BME280;15328;50.860;10.562;2023-01-15T08:55:25;95064.69;;;4.01;70.09
28000;BME280;15328;50.860;10.562;2023-01-15T09:00:26;95079.22;;;4.11;70.11
28000;BME280;15328;50.860;10.562;2023-01-15T09:05:26;95066.13;;;3.97;70.10
28000;BME280;15328;50.860;10.562;2023-01-15T09:10:29;95068.97;;;3.96;71.02
28000;BME280;15328;50.860;10.562;2023-01-15T09:15:31;95074.28;;;3.89;69.55
28000;BME280;15328;50.860;10.562;2023-01-15T09:20:32;95069.75;;;4.03;70.41
28000;BME280;15328;50.860;10.562;2023-01-15T09:25:32;95072.63;;;3.95;71.04
28000;BME280;15328;50.860;10.562;2023-01-15T09:30:33;95093.84;;;4.00;71.16
28000;BME280;15328;50.860;10.562;2023-01-15T09:35:33;95080.06;;;4.04;70.92
28000;BME280;15328;50.860;10.562;2023-01-15T09:41:01;95109.19;;;4.10;71.05
28000;BME280;15328;50.860;10.562;2023-01-15T09:46:32;95129.03;;;4.12;70.52
28000;BME280;15328;50.860;10.562;2023-01-15T09:51:52;95131.97;;;3.84;70.21
28000;BME280;15328;50.860;10.562;2023-01-15T09:56:57;95133.53;;;3.98;71.42
28000;BME280;15328;50.860;10.562;2023-01-15T10:01:59;95125.44;;;4.00;70.47
28000;BME280;15328;50.860;10.562;2023-01-15T10:07:11;95132.09;;;4.02;71.00
28000;BME280;15328;50.860;10.562;2023-01-15T10:12:22;95142.63;;;4.02;70.26
28000;BME280;15328;50.860;10.562;2023-01-15T10:17:43;95152.75;;;3.99;70.87
28000;BME280;15328;50.860;10.562;2023-01-15T10:28:48;95146.78;;;3.72;70.54
28000;BME280;15328;50.860;10.562;2023-01-15T10:34:20;95135.44;;;3.71;71.27
28000;BME280;15328;50.860;10.562;2023-01-15T10:45:20;95132.84;;;3.65;70.85
28000;BME280;15328;50.860;10.562;2023-01-15T10:50:25;95141.16;;;3.42;70.79
28000;BME280;15328;50.860;10.562;2023-01-15T10:55:39;95143.75;;;3.68;70.13
28000;BME280;15328;50.860;10.562;2023-01-15T11:00:47;95162.78;;;3.57;70.45
28000;BME280;15328;50.860;10.562;2023-01-15T11:05:49;95153.06;;;3.51;70.88
28000;BME280;15328;50.860;10.562;2023-01-15T11:10:50;95178.78;;;3.42;71.75
28000;BME280;15328;50.860;10.562;2023-01-15T11:15:50;95167.66;;;3.60;71.95
28000;BME280;15328;50.860;10.562;2023-01-15T11:21:11;95172.69;;;3.49;71.04
28000;BME280;15328;50.860;10.562;2023-01-15T11:31:34;95167.16;;;3.83;71.10
28000;BME280;15328;50.860;10.562;2023-01-15T11:36:35;95167.19;;;3.90;71.14
28000;BME280;15328;50.860;10.562;2023-01-15T11:41:35;95168.31;;;4.07;71.10
28000;BME280;15328;50.860;10.562;2023-01-15T11:46:54;95134.69;;;4.09;70.95
28000;BME280;15328;50.860;10.562;2023-01-15T11:52:17;95131.84;;;4.11;71.12
28000;BME280;15328;50.860;10.562;2023-01-15T11:57:27;95144.59;;;4.20;70.41
28000;BME280;15328;50.860;10.562;2023-01-15T12:02:34;95149.06;;;4.20;70.88
28000;BME280;15328;50.860;10.562;2023-01-15T12:07:52;95117.00;;;4.29;70.03
28000;BME280;15328;50.860;10.562;2023-01-15T12:13:17;95123.88;;;4.30;70.16
28000;BME280;15328;50.860;10.562;2023-01-15T12:18:35;95157.72;;;4.27;70.50
28000;BME280;15328;50.860;10.562;2023-01-15T12:29:53;95147.16;;;4.40;69.79
28000;BME280;15328;50.860;10.562;2023-01-15T12:34:57;95129.72;;;4.39;69.31
28000;BME280;15328;50.860;10.562;2023-01-15T12:45:08;95152.28;;;4.22;68.20
28000;BME280;15328;50.860;10.562;2023-01-15T12:50:33;95150.97;;;4.38;68.20
28000;BME280;15328;50.860;10.562;2023-01-15T12:55:40;95138.78;;;4.50;67.53
28000;BME280;15328;50.860;10.562;2023-01-15T13:00:42;95136.25;;;4.30;66.39
28000;BME280;15328;50.860;10.562;2023-01-15T13:05:53;95154.41;;;4.45;65.48
28000;BME280;15328;50.860;10.562;2023-01-15T13:10:55;95158.03;;;4.50;65.50
28000;BME280;15328;50.860;10.562;2023-01-15T13:21:14;95177.25;;;4.51;65.55
28000;BME280;15328;50.860;10.562;2023-01-15T13:32:05;95179.94;;;4.44;65.06
28000;BME280;15328;50.860;10.562;2023-01-15T13:37:35;95164.38;;;4.29;64.26
28000;BME280;15328;50.860;10.562;2023-01-15T13:42:45;95183.59;;;4.37;64.16
28000;BME280;15328;50.860;10.562;2023-01-15T13:47:49;95184.00;;;4.33;63.93
28000;BME280;15328;50.860;10.562;2023-01-15T13:53:08;95193.66;;;4.53;63.59
28000;BME280;15328;50.860;10.562;2023-01-15T13:58:29;95194.34;;;4.35;64.14
28000;BME280;15328;50.860;10.562;2023-01-15T14:03:34;95188.09;;;4.29;64.60
28000;BME280;15328;50.860;10.562;2023-01-15T14:08:44;95209.13;;;4.36;63.81
28000;BME280;15328;50.860;10.562;2023-01-15T14:13:54;95204.66;;;4.43;64.37
28000;BME280;15328;50.860;10.562;2023-01-15T14:19:09;95220.41;;;4.50;64.57
28000;BME280;15328;50.860;10.562;2023-01-15T14:29:49;95261.50;;;4.57;64.29
28000;BME280;15328;50.860;10.562;2023-01-15T14:34:55;95258.31;;;4.49;63.46
28000;BME280;15328;50.860;10.562;2023-01-15T14:40:00;95264.44;;;4.29;62.93
28000;BME280;15328;50.860;10.562;2023-01-15T14:45:07;95263.00;;;4.33;63.71
28000;BME280;15328;50.860;10.562;2023-01-15T15:02:00;95277.19;;;4.39;64.14
28000;BME280;15328;50.860;10.562;2023-01-15T15:07:25;95280.41;;;4.34;63.83
28000;BME280;15328;50.860;10.562;2023-01-15T15:18:51;95292.72;;;4.54;64.65
28000;BME280;15328;50.860;10.562;2023-01-15T15:30:23;95300.41;;;4.55;64.42
28000;BME280;15328;50.860;10.562;2023-01-15T15:35:54;95288.03;;;4.69;63.70
28000;BME280;15328;50.860;10.562;2023-01-15T15:41:08;95277.75;;;4.48;64.26
28000;BME280;15328;50.860;10.562;2023-01-15T15:46:27;95292.88;;;4.65;63.33
28000;BME280;15328;50.860;10.562;2023-01-15T15:51:56;95291.69;;;4.61;64.02
28000;BME280;15328;50.860;10.562;2023-01-15T16:02:33;95291.09;;;4.53;64.53
28000;BME280;15328;50.860;10.562;2023-01-15T16:13:22;95277.34;;;4.51;64.65
28000;BME280;15328;50.860;10.562;2023-01-15T16:18:42;95282.88;;;4.29;64.84
28000;BME280;15328;50.860;10.562;2023-01-15T16:24:22;95268.66;;;4.37;65.57
28000;BME280;15328;50.860;10.562;2023-01-15T16:29:33;95269.28;;;4.39;65.63
28000;BME280;15328;50.860;10.562;2023-01-15T16:35:13;95276.78;;;4.42;65.81
28000;BME280;15328;50.860;10.562;2023-01-15T16:46:19;95282.03;;;4.35;65.36
28000;BME280;15328;50.860;10.562;2023-01-15T16:51:34;95263.22;;;4.25;66.02
28000;BME280;15328;50.860;10.562;2023-01-15T17:02:22;95263.06;;;4.20;65.59
28000;BME280;15328;50.860;10.562;2023-01-15T17:07:27;95262.06;;;4.15;66.06
28000;BME280;15328;50.860;10.562;2023-01-15T17:18:19;95261.19;;;4.27;66.13
28000;BME280;15328;50.860;10.562;2023-01-15T17:23:34;95269.75;;;4.16;65.26
28000;BME280;15328;50.860;10.562;2023-01-15T17:28:56;95273.19;;;4.10;65.90
28000;BME280;15328;50.860;10.562;2023-01-15T17:34:00;95249.28;;;4.18;66.25
28000;BME280;15328;50.860;10.562;2023-01-15T17:39:01;95274.41;;;4.14;66.28
28000;BME280;15328;50.860;10.562;2023-01-15T17:44:35;95268.28;;;4.33;66.43
28000;BME280;15328;50.860;10.562;2023-01-15T17:49:49;95277.56;;;4.36;65.79
28000;BME280;15328;50.860;10.562;2023-01-15T17:54:58;95247.84;;;4.29;65.25
28000;BME280;15328;50.860;10.562;2023-01-15T18:00:17;95261.38;;;4.39;65.12
28000;BME280;15328;50.860;10.562;2023-01-15T18:05:44;95241.31;;;4.38;65.41
28000;BME280;15328;50.860;10.562;2023-01-15T18:10:49;95242.94;;;4.46;64.59
28000;BME280;15328;50.860;10.562;2023-01-15T18:15:49;95258.81;;;4.19;65.13
28000;BME280;15328;50.860;10.562;2023-01-15T18:20:51;95246.22;;;4.28;65.55
28000;BME280;15328;50.860;10.562;2023-01-15T18:26:00;95259.94;;;4.37;65.27
28000;BME280;15328;50.860;10.562;2023-01-15T18:31:02;95255.31;;;4.39;64.97
28000;BME280;15328;50.860;10.562;2023-01-15T18:36:13;95258.75;;;4.39;64.77
28000;BME280;15328;50.860;10.562;2023-01-15T18:41:16;95253.28;;;4.34;65.54
28000;BME280;15328;50.860;10.562;2023-01-15T18:46:35;95255.09;;;4.33;65.26
28000;BME280;15328;50.860;10.562;2023-01-15T18:51:46;95267.25;;;4.41;64.96
28000;BME280;15328;50.860;10.562;2023-01-15T18:57:25;95265.00;;;4.38;64.58
28000;BME280;15328;50.860;10.562;2023-01-15T19:02:26;95261.56;;;4.38;64.80
28000;BME280;15328;50.860;10.562;2023-01-15T19:07:26;95279.81;;;4.39;64.36
28000;BME280;15328;50.860;10.562;2023-01-15T19:12:27;95258.38;;;4.29;64.94
28000;BME280;15328;50.860;10.562;2023-01-15T19:17:48;95250.22;;;4.44;64.60
28000;BME280;15328;50.860;10.562;2023-01-15T19:23:14;95251.88;;;4.31;65.12
28000;BME280;15328;50.860;10.562;2023-01-15T19:28:20;95229.06;;;4.12;66.06
28000;BME280;15328;50.860;10.562;2023-01-15T19:33:24;95232.84;;;4.29;65.71
28000;BME280;15328;50.860;10.562;2023-01-15T19:38:34;95235.09;;;4.26;66.23
28000;BME280;15328;50.860;10.562;2023-01-15T19:43:40;95233.84;;;4.35;65.92
28000;BME280;15328;50.860;10.562;2023-01-15T19:49:01;95249.84;;;4.33;65.87
28000;BME280;15328;50.860;10.562;2023-01-15T19:54:31;95217.44;;;4.33;65.91
28000;BME280;15328;50.860;10.562;2023-01-15T19:59:51;95239.31;;;4.33;65.21
28000;BME280;15328;50.860;10.562;2023-01-15T20:10:29;95238.25;;;4.48;65.10
28000;BME280;15328;50.860;10.562;2023-01-15T20:15:42;95224.88;;;4.49;64.38
28000;BME280;15328;50.860;10.562;2023-01-15T20:20:44;95216.78;;;4.51;64.73
28000;BME280;15328;50.860;10.562;2023-01-15T20:25:45;95209.59;;;4.64;65.15
28000;BME280;15328;50.860;10.562;2023-01-15T20:30:48;95206.59;;;4.61;65.38
28000;BME280;15328;50.860;10.562;2023-01-15T20:35:52;95193.88;;;4.51;65.80
28000;BME280;15328;50.860;10.562;2023-01-15T20:40:55;95194.78;;;4.25;66.53
28000;BME280;15328;50.860;10.562;2023-01-15T20:46:15;95212.81;;;4.22;67.45
28000;BME280;15328;50.860;10.562;2023-01-15T20:51:16;95205.59;;;3.97;68.40
28000;BME280;15328;50.860;10.562;2023-01-15T20:56:18;95200.38;;;3.91;69.41
28000;BME280;15328;50.860;10.562;2023-01-15T21:01:19;95204.19;;;3.95;69.37
28000;BME280;15328;50.860;10.562;2023-01-15T21:06:22;95177.06;;;4.01;69.75
28000;BME280;15328;50.860;10.562;2023-01-15T21:11:29;95166.19;;;3.84;69.24
28000;BME280;15328;50.860;10.562;2023-01-15T21:16:29;95152.19;;;3.90;68.58
28000;BME280;15328;50.860;10.562;2023-01-15T21:21:30;95150.81;;;3.75;68.68
28000;BME280;15328;50.860;10.562;2023-01-15T21:26:55;95136.44;;;3.77;69.07
28000;BME280;15328;50.860;10.562;2023-01-15T21:31:54;95134.00;;;3.89;68.32
28000;BME280;15328;50.860;10.562;2023-01-15T21:36:55;95140.69;;;3.85;69.24
28000;BME280;15328;50.860;10.562;2023-01-15T21:42:01;95138.84;;;3.92;69.04
28000;BME280;15328;50.860;10.562;2023-01-15T21:47:27;95144.31;;;3.84;69.40
28000;BME280;15328;50.860;10.562;2023-01-15T21:52:33;95143.13;;;3.73;69.50
28000;BME280;15328;50.860;10.562;2023-01-15T21:57:33;95124.69;;;3.86;68.71
28000;BME280;15328;50.860;10.562;2023-01-15T22:02:34;95107.47;;;3.90;68.92
28000;BME280;15328;50.860;10.562;2023-01-15T22:07:35;95106.03;;;3.94;68.85
28000;BME280;15328;50.860;10.562;2023-01-15T22:12:35;95123.59;;;4.00;68.28
28000;BME280;15328;50.860;10.562;2023-01-15T22:17:41;95098.72;;;3.96;67.58
28000;BME280;15328;50.860;10.562;2023-01-15T22:22:41;95090.63;;;3.98;68.25
28000;BME280;15328;50.860;10.562;2023-01-15T22:27:42;95077.91;;;3.95;67.62
28000;BME280;15328;50.860;10.562;2023-01-15T22:32:42;95067.97;;;3.97;67.51
28000;BME280;15328;50.860;10.562;2023-01-15T22:37:43;95068.56;;;3.99;67.14
28000;BME280;15328;50.860;10.562;2023-01-15T22:42:43;95066.06;;;4.11;66.41
28000;BME280;15328;50.860;10.562;2023-01-15T22:47:43;95054.50;;;4.18;66.21
28000;BME280;15328;50.860;10.562;2023-01-15T22:52:44;95054.50;;;4.18;66.38
28000;BME280;15328;50.860;10.562;2023-01-15T22:57:45;95057.97;;;4.12;67.01
28000;BME280;15328;50.860;10.562;2023-01-15T23:02:46;95045.19;;;4.16;66.91
28000;BME280;15328;50.860;10.562;2023-01-15T23:08:04;95047.78;;;4.22;67.09
28000;BME280;15328;50.860;10.562;2023-01-15T23:13:04;95053.69;;;4.18;67.60
28000;BME280;15328;50.860;10.562;2023-01-15T23:18:04;95044.41;;;4.09;67.40
28000;BME280;15328;50.860;10.562;2023-01-15T23:23:05;95051.50;;;4.15;68.10
28000;BME280;15328;50.860;10.562;2023-01-15T23:28:05;95040.31;;;4.19;67.87
28000;BME280;15328;50.860;10.562;2023-01-15T23:33:06;95054.28;;;4.20;67.95
28000;BME280;15328;50.860;10.562;2023-01-15T23:38:07;95055.22;;;4.32;67.52
28000;BME280;15328;50.860;10.562;2023-01-15T23:43:08;95042.91;;;4.26;67.72
28000;BME280;15328;50.860;10.562;2023-01-15T23:48:27;95039.72;;;4.17;68.28
28000;BME280;15328;50.860;10.562;2023-01-15T23:53:27;95033.66;;;4.17;68.55
28000;BME280;15328;50.860;10.562;2023-01-15T23:58:28;95028.78;;;4.20;68.03
